sensor_id;sensor_type;location;lat;lon;timestamp;P1;durP1;ratioP1;P2;durP2;ratioP2
29764;SDS011;16667;-33.884;151.182;2022-08-19T00:00:10;2.92;;;0.80;;
29764;SDS011;16667;-33.884;151.182;2022-08-19T00:02:41;6.07;;;1.20;;
29764;SDS011;16667;-33.884;151.182;2022-08-19T00:05:13;2.83;;;0.85;;
29764;SDS011;16667;-33.884;151.182;2022-08-19T00:07:43;2.27;;;0.90;;
29764;SDS011;16667;-33.884;151.182;2022-08-19T00:10:16;3.63;;;1.00;;
29764;SDS011;16667;-33.884;151.182;2022-08-19T00:12:48;4.15;;;1.20;;
29764;SDS011;16667;-33.884;151.182;2022-08-19T00:15:19;5.45;;;1.00;;
29764;SDS011;16667;-33.884;151.182;2022-08-19T00:17:50;7.45;;;1.25;;
29764;SDS011;16667;-33.884;151.182;2022-08-19T00:20:21;4.23;;;0.90;;
29764;SDS011;16667;-33.884;151.182;2022-08-19T00:22:52;5.05;;;0.93;;
29764;SDS011;16667;-33.884;151.182;2022-08-19T00:25:25;8.80;;;1.60;;
29764;SDS011;16667;-33.884;151.182;2022-08-19T00:27:56;5.80;;;1.30;;
29764;SDS011;16667;-33.884;151.182;2022-08-19T00:30:27;2.00;;;0.90;;
29764;SDS011;16667;-33.884;151.182;2022-08-19T00:32:57;5.65;;;0.98;;
29764;SDS011;16667;-33.884;151.182;2022-08-19T00:35:28;1.98;;;0.80;;
29764;SDS011;16667;-33.884;151.182;2022-08-19T00:37:59;4.20;;;0.82;;
29764;SDS011;16667;-33.884;151.182;2022-08-19T00:40:33;4.40;;;0.80;;
29764;SDS011;16667;-33.884;151.182;2022-08-19T00:43:08;3.70;;;1.13;;
29764;SDS011;16667;-33.884;151.182;2022-08-19T00:45:39;5.10;;;0.80;;
29764;SDS011;16667;-33.884;151.182;2022-08-19T00:48:10;1.55;;;0.65;;
29764;SDS011;16667;-33.884;151.182;2022-08-19T00:50:42;1.67;;;0.60;;
29764;SDS011;16667;-33.884;151.182;2022-08-19T00:53:13;1.40;;;0.60;;
29764;SDS011;16667;-33.884;151.182;2022-08-19T00:55:49;5.18;;;0.70;;
29764;SDS011;16667;-33.884;151.182;2022-08-19T00:58:22;3.20;;;0.60;;
29764;SDS011;16667;-33.884;151.182;2022-08-19T01:00:57;4.73;;;0.77;;
29764;SDS011;16667;-33.884;151.182;2022-08-19T01:03:28;1.47;;;0.60;;
29764;SDS011;16667;-33.884;151.182;2022-08-19T01:05:59;3.53;;;0.70;;
29764;SDS011;16667;-33.884;151.182;2022-08-19T01:08:30;3.22;;;0.70;;
29764;SDS011;16667;-33.884;151.182;2022-08-19T01:11:04;1.13;;;0.43;;
29764;SDS011;16667;-33.884;151.182;2022-08-19T01:13:35;1.38;;;0.50;;
29764;SDS011;16667;-33.884;151.182;2022-08-19T01:16:08;1.13;;;0.50;;
29764;SDS011;16667;-33.884;151.182;2022-08-19T01:18:41;2.70;;;0.50;;
29764;SDS011;16667;-33.884;151.182;2022-08-19T01:21:15;2.63;;;0.68;;
29764;SDS011;16667;-33.884;151.182;2022-08-19T01:23:52;2.00;;;0.50;;
29764;SDS011;16667;-33.884;151.182;2022-08-19T01:26:25;1.52;;;0.40;;
29764;SDS011;16667;-33.884;151.182;2022-08-19T01:28:57;1.40;;;0.60;;
29764;SDS011;16667;-33.884;151.182;2022-08-19T01:31:29;1.58;;;0.50;;
29764;SDS011;16667;-33.884;151.182;2022-08-19T01:34:01;0.73;;;0.30;;
29764;SDS011;16667;-33.884;151.182;2022-08-19T01:36:34;2.03;;;0.53;;
29764;SDS011;16667;-33.884;151.182;2022-08-19T01:39:14;2.58;;;0.50;;
29764;SDS011;16667;-33.884;151.182;2022-08-19T01:41:46;2.15;;;0.55;;
29764;SDS011;16667;-33.884;151.182;2022-08-19T01:44:17;2.30;;;0.50;;
29764;SDS011;16667;-33.884;151.182;2022-08-19T01:46:50;3.15;;;0.45;;
29764;SDS011;16667;-33.884;151.182;2022-08-19T01:49:22;2.53;;;0.50;;
29764;SDS011;16667;-33.884;151.182;2022-08-19T01:51:56;2.72;;;0.88;;
29764;SDS011;16667;-33.884;151.182;2022-08-19T01:54:30;1.08;;;0.60;;
29764;SDS011;16667;-33.884;151.182;2022-08-19T01:57:10;1.40;;;0.40;;
29764;SDS011;16667;-33.884;151.182;2022-08-19T01:59:43;1.60;;;0.50;;
29764;SDS011;16667;-33.884;151.182;2022-08-19T02:02:14;1.83;;;0.65;;
29764;SDS011;16667;-33.884;151.182;2022-08-19T02:04:47;1.77;;;0.50;;
29764;SDS011;16667;-33.884;151.182;2022-08-19T02:07:19;1.00;;;0.63;;
29764;SDS011;16667;-33.884;151.182;2022-08-19T02:09:55;3.17;;;0.65;;
29764;SDS011;16667;-33.884;151.182;2022-08-19T02:12:25;0.70;;;0.40;;
29764;SDS011;16667;-33.884;151.182;2022-08-19T02:14:56;2.50;;;0.60;;
29764;SDS011;16667;-33.884;151.182;2022-08-19T02:17:28;1.30;;;0.50;;
29764;SDS011;16667;-33.884;151.182;2022-08-19T02:19:59;0.65;;;0.40;;
29764;SDS011;16667;-33.884;151.182;2022-08-19T02:22:30;0.60;;;0.40;;
29764;SDS011;16667;-33.884;151.182;2022-08-19T02:25:03;1.38;;;0.50;;
29764;SDS011;16667;-33.884;151.182;2022-08-19T02:27:36;3.92;;;0.43;;
29764;SDS011;16667;-33.884;151.182;2022-08-19T02:30:08;1.27;;;0.60;;
29764;SDS011;16667;-33.884;151.182;2022-08-19T02:32:41;0.83;;;0.40;;
29764;SDS011;16667;-33.884;151.182;2022-08-19T02:35:12;0.73;;;0.40;;
29764;SDS011;16667;-33.884;151.182;2022-08-19T02:37:43;1.50;;;0.52;;
29764;SDS011;16667;-33.884;151.182;2022-08-19T02:40:34;7.57;;;0.60;;
29764;SDS011;16667;-33.884;151.182;2022-08-19T02:43:06;2.40;;;0.47;;
29764;SDS011;16667;-33.884;151.182;2022-08-19T02:45:37;1.13;;;0.50;;
29764;SDS011;16667;-33.884;151.182;2022-08-19T02:48:09;1.20;;;0.60;;
29764;SDS011;16667;-33.884;151.182;2022-08-19T02:50:40;3.03;;;0.57;;
29764;SDS011;16667;-33.884;151.182;2022-08-19T02:53:11;2.55;;;0.30;;
29764;SDS011;16667;-33.884;151.182;2022-08-19T02:55:44;0.75;;;0.43;;
29764;SDS011;16667;-33.884;151.182;2022-08-19T02:58:15;3.33;;;0.47;;
29764;SDS011;16667;-33.884;151.182;2022-08-19T03:00:48;0.90;;;0.40;;
29764;SDS011;16667;-33.884;151.182;2022-08-19T03:03:20;1.30;;;0.40;;
29764;SDS011;16667;-33.884;151.182;2022-08-19T03:05:51;1.73;;;0.70;;
29764;SDS011;16667;-33.884;151.182;2022-08-19T03:08:31;1.70;;;0.55;;
29764;SDS011;16667;-33.884;151.182;2022-08-19T03:11:11;2.05;;;0.43;;
29764;SDS011;16667;-33.884;151.182;2022-08-19T03:13:43;0.75;;;0.50;;
29764;SDS011;16667;-33.884;151.182;2022-08-19T03:16:15;1.20;;;0.50;;
29764;SDS011;16667;-33.884;151.182;2022-08-19T03:18:46;0.73;;;0.38;;
29764;SDS011;16667;-33.884;151.182;2022-08-19T03:21:17;0.93;;;0.30;;
29764;SDS011;16667;-33.884;151.182;2022-08-19T03:23:50;3.20;;;0.40;;
29764;SDS011;16667;-33.884;151.182;2022-08-19T03:26:26;1.80;;;0.52;;
29764;SDS011;16667;-33.884;151.182;2022-08-19T03:29:00;0.90;;;0.32;;
29764;SDS011;16667;-33.884;151.182;2022-08-19T03:31:32;0.60;;;0.30;;
29764;SDS011;16667;-33.884;151.182;2022-08-19T03:34:03;1.20;;;0.40;;
29764;SDS011;16667;-33.884;151.182;2022-08-19T03:36:37;2.40;;;0.40;;
29764;SDS011;16667;-33.884;151.182;2022-08-19T03:39:09;1.75;;;0.20;;
29764;SDS011;16667;-33.884;151.182;2022-08-19T03:41:46;1.73;;;0.47;;
29764;SDS011;16667;-33.884;151.182;2022-08-19T03:44:19;1.33;;;0.30;;
29764;SDS011;16667;-33.884;151.182;2022-08-19T03:46:52;1.45;;;0.30;;
29764;SDS011;16667;-33.884;151.182;2022-08-19T03:49:24;0.32;;;0.22;;
29764;SDS011;16667;-33.884;151.182;2022-08-19T03:51:59;0.65;;;0.30;;
29764;SDS011;16667;-33.884;151.182;2022-08-19T03:54:35;4.07;;;0.20;;
29764;SDS011;16667;-33.884;151.182;2022-08-19T03:57:08;1.58;;;0.50;;
29764;SDS011;16667;-33.884;151.182;2022-08-19T03:59:38;0.50;;;0.27;;
29764;SDS011;16667;-33.884;151.182;2022-08-19T04:02:10;1.10;;;0.40;;
29764;SDS011;16667;-33.884;151.182;2022-08-19T04:04:42;1.33;;;0.30;;
29764;SDS011;16667;-33.884;151.182;2022-08-19T04:07:13;1.80;;;0.30;;
29764;SDS011;16667;-33.884;151.182;2022-08-19T04:09:47;0.68;;;0.30;;
29764;SDS011;16667;-33.884;151.182;2022-08-19T04:12:21;1.95;;;0.35;;
29764;SDS011;16667;-33.884;151.182;2022-08-19T04:14:55;1.13;;;0.50;;
29764;SDS011;16667;-33.884;151.182;2022-08-19T04:17:26;3.72;;;0.57;;
29764;SDS011;16667;-33.884;151.182;2022-08-19T04:19:57;1.13;;;0.60;;
29764;SDS011;16667;-33.884;151.182;2022-08-19T04:22:28;2.38;;;0.50;;
29764;SDS011;16667;-33.884;151.182;2022-08-19T04:24:59;1.10;;;0.52;;
29764;SDS011;16667;-33.884;151.182;2022-08-19T04:27:31;2.97;;;0.40;;
29764;SDS011;16667;-33.884;151.182;2022-08-19T04:30:02;2.97;;;0.52;;
29764;SDS011;16667;-33.884;151.182;2022-08-19T04:32:34;0.90;;;0.40;;
29764;SDS011;16667;-33.884;151.182;2022-08-19T04:35:04;0.98;;;0.50;;
29764;SDS011;16667;-33.884;151.182;2022-08-19T04:37:36;1.35;;;0.52;;
29764;SDS011;16667;-33.884;151.182;2022-08-19T04:40:07;1.55;;;0.60;;
29764;SDS011;16667;-33.884;151.182;2022-08-19T04:42:56;2.00;;;0.68;;
29764;SDS011;16667;-33.884;151.182;2022-08-19T04:45:27;1.05;;;0.47;;
29764;SDS011;16667;-33.884;151.182;2022-08-19T04:47:58;0.52;;;0.30;;
29764;SDS011;16667;-33.884;151.182;2022-08-19T04:50:29;0.70;;;0.30;;
29764;SDS011;16667;-33.884;151.182;2022-08-19T04:52:59;0.95;;;0.40;;
29764;SDS011;16667;-33.884;151.182;2022-08-19T04:55:31;1.90;;;0.70;;
29764;SDS011;16667;-33.884;151.182;2022-08-19T04:58:04;0.93;;;0.40;;
29764;SDS011;16667;-33.884;151.182;2022-08-19T05:00:36;0.55;;;0.30;;
29764;SDS011;16667;-33.884;151.182;2022-08-19T05:03:10;1.40;;;0.33;;
29764;SDS011;16667;-33.884;151.182;2022-08-19T05:05:44;2.22;;;0.50;;
29764;SDS011;16667;-33.884;151.182;2022-08-19T05:08:17;2.22;;;0.47;;
29764;SDS011;16667;-33.884;151.182;2022-08-19T05:10:51;4.72;;;0.77;;
29764;SDS011;16667;-33.884;151.182;2022-08-19T05:13:25;4.30;;;0.40;;
29764;SDS011;16667;-33.884;151.182;2022-08-19T05:15:56;2.88;;;0.40;;
29764;SDS011;16667;-33.884;151.182;2022-08-19T05:18:28;3.55;;;0.60;;
29764;SDS011;16667;-33.884;151.182;2022-08-19T05:21:15;1.80;;;0.57;;
29764;SDS011;16667;-33.884;151.182;2022-08-19T05:24:02;2.35;;;0.40;;
29764;SDS011;16667;-33.884;151.182;2022-08-19T05:26:35;1.33;;;0.40;;
29764;SDS011;16667;-33.884;151.182;2022-08-19T05:29:08;2.08;;;0.50;;
29764;SDS011;16667;-33.884;151.182;2022-08-19T05:31:39;6.95;;;0.52;;
29764;SDS011;16667;-33.884;151.182;2022-08-19T05:34:10;1.60;;;0.50;;
29764;SDS011;16667;-33.884;151.182;2022-08-19T05:36:44;3.70;;;0.60;;
29764;SDS011;16667;-33.884;151.182;2022-08-19T05:39:16;1.73;;;0.60;;
29764;SDS011;16667;-33.884;151.182;2022-08-19T05:41:49;5.28;;;0.70;;
29764;SDS011;16667;-33.884;151.182;2022-08-19T05:44:22;1.05;;;0.55;;
29764;SDS011;16667;-33.884;151.182;2022-08-19T05:46:57;1.50;;;0.45;;
29764;SDS011;16667;-33.884;151.182;2022-08-19T05:49:28;3.00;;;0.65;;
29764;SDS011;16667;-33.884;151.182;2022-08-19T05:52:03;1.05;;;0.35;;
29764;SDS011;16667;-33.884;151.182;2022-08-19T05:54:36;3.00;;;0.30;;
29764;SDS011;16667;-33.884;151.182;2022-08-19T05:57:09;2.35;;;0.40;;
29764;SDS011;16667;-33.884;151.182;2022-08-19T05:59:44;1.10;;;0.40;;
29764;SDS011;16667;-33.884;151.182;2022-08-19T06:02:17;2.60;;;0.20;;
29764;SDS011;16667;-33.884;151.182;2022-08-19T06:04:48;1.80;;;0.30;;
29764;SDS011;16667;-33.884;151.182;2022-08-19T06:07:20;3.10;;;0.30;;
29764;SDS011;16667;-33.884;151.182;2022-08-19T06:09:50;0.57;;;0.20;;
29764;SDS011;16667;-33.884;151.182;2022-08-19T06:12:24;1.00;;;0.28;;
29764;SDS011;16667;-33.884;151.182;2022-08-19T06:14:58;1.55;;;0.45;;
29764;SDS011;16667;-33.884;151.182;2022-08-19T06:17:30;5.10;;;0.50;;
29764;SDS011;16667;-33.884;151.182;2022-08-19T06:20:01;1.05;;;0.30;;
29764;SDS011;16667;-33.884;151.182;2022-08-19T06:22:35;2.17;;;0.55;;
29764;SDS011;16667;-33.884;151.182;2022-08-19T06:25:08;2.00;;;0.40;;
29764;SDS011;16667;-33.884;151.182;2022-08-19T06:27:40;1.40;;;0.30;;
29764;SDS011;16667;-33.884;151.182;2022-08-19T06:30:15;1.60;;;0.30;;
29764;SDS011;16667;-33.884;151.182;2022-08-19T06:32:46;2.33;;;0.50;;
29764;SDS011;16667;-33.884;151.182;2022-08-19T06:35:16;14.50;;;2.30;;
29764;SDS011;16667;-33.884;151.182;2022-08-19T06:37:47;12.18;;;2.70;;
29764;SDS011;16667;-33.884;151.182;2022-08-19T06:40:18;12.68;;;2.40;;
29764;SDS011;16667;-33.884;151.182;2022-08-19T06:42:49;12.25;;;2.05;;
29764;SDS011;16667;-33.884;151.182;2022-08-19T06:45:22;7.82;;;1.77;;
29764;SDS011;16667;-33.884;151.182;2022-08-19T06:47:54;10.02;;;2.03;;
29764;SDS011;16667;-33.884;151.182;2022-08-19T06:50:25;16.90;;;2.28;;
29764;SDS011;16667;-33.884;151.182;2022-08-19T06:52:57;14.00;;;2.30;;
29764;SDS011;16667;-33.884;151.182;2022-08-19T06:55:28;15.85;;;2.13;;
29764;SDS011;16667;-33.884;151.182;2022-08-19T06:58:01;10.32;;;1.73;;
29764;SDS011;16667;-33.884;151.182;2022-08-19T07:00:37;10.70;;;1.77;;
29764;SDS011;16667;-33.884;151.182;2022-08-19T07:03:08;9.10;;;1.95;;
29764;SDS011;16667;-33.884;151.182;2022-08-19T07:05:39;10.35;;;2.10;;
29764;SDS011;16667;-33.884;151.182;2022-08-19T07:08:11;9.07;;;1.60;;
29764;SDS011;16667;-33.884;151.182;2022-08-19T07:10:47;10.23;;;1.80;;
29764;SDS011;16667;-33.884;151.182;2022-08-19T07:13:18;9.02;;;1.67;;
29764;SDS011;16667;-33.884;151.182;2022-08-19T07:15:50;7.18;;;1.50;;
29764;SDS011;16667;-33.884;151.182;2022-08-19T07:18:24;9.45;;;1.63;;
29764;SDS011;16667;-33.884;151.182;2022-08-19T07:21:02;4.80;;;1.60;;
29764;SDS011;16667;-33.884;151.182;2022-08-19T07:23:33;8.75;;;1.08;;
29764;SDS011;16667;-33.884;151.182;2022-08-19T07:26:05;6.20;;;1.17;;
29764;SDS011;16667;-33.884;151.182;2022-08-19T07:28:36;5.45;;;1.17;;
29764;SDS011;16667;-33.884;151.182;2022-08-19T07:31:09;6.18;;;1.48;;
29764;SDS011;16667;-33.884;151.182;2022-08-19T07:33:41;5.72;;;1.17;;
29764;SDS011;16667;-33.884;151.182;2022-08-19T07:36:17;4.35;;;1.00;;
29764;SDS011;16667;-33.884;151.182;2022-08-19T07:38:59;3.78;;;0.98;;
29764;SDS011;16667;-33.884;151.182;2022-08-19T07:41:32;3.53;;;1.13;;
29764;SDS011;16667;-33.884;151.182;2022-08-19T07:44:05;4.28;;;1.20;;
29764;SDS011;16667;-33.884;151.182;2022-08-19T07:46:40;4.05;;;1.20;;
29764;SDS011;16667;-33.884;151.182;2022-08-19T07:49:17;3.57;;;1.10;;
29764;SDS011;16667;-33.884;151.182;2022-08-19T07:51:49;2.27;;;0.70;;
29764;SDS011;16667;-33.884;151.182;2022-08-19T07:54:21;4.53;;;1.02;;
29764;SDS011;16667;-33.884;151.182;2022-08-19T07:56:55;2.63;;;0.80;;
29764;SDS011;16667;-33.884;151.182;2022-08-19T07:59:26;5.20;;;1.00;;
29764;SDS011;16667;-33.884;151.182;2022-08-19T08:01:59;2.50;;;0.73;;
29764;SDS011;16667;-33.884;151.182;2022-08-19T08:04:30;3.45;;;0.75;;
29764;SDS011;16667;-33.884;151.182;2022-08-19T08:07:17;2.92;;;0.80;;
29764;SDS011;16667;-33.884;151.182;2022-08-19T08:10:03;2.35;;;1.00;;
29764;SDS011;16667;-33.884;151.182;2022-08-19T08:12:39;2.47;;;1.00;;
29764;SDS011;16667;-33.884;151.182;2022-08-19T08:15:10;2.70;;;1.00;;
29764;SDS011;16667;-33.884;151.182;2022-08-19T08:17:46;2.50;;;1.03;;
29764;SDS011;16667;-33.884;151.182;2022-08-19T08:20:17;2.70;;;0.90;;
29764;SDS011;16667;-33.884;151.182;2022-08-19T08:22:49;3.33;;;1.10;;
29764;SDS011;16667;-33.884;151.182;2022-08-19T08:25:47;5.93;;;2.85;;
29764;SDS011;16667;-33.884;151.182;2022-08-19T08:28:18;4.72;;;1.33;;
29764;SDS011;16667;-33.884;151.182;2022-08-19T08:30:49;3.47;;;1.10;;
29764;SDS011;16667;-33.884;151.182;2022-08-19T08:33:24;6.32;;;1.75;;
29764;SDS011;16667;-33.884;151.182;2022-08-19T08:35:58;6.32;;;2.10;;
29764;SDS011;16667;-33.884;151.182;2022-08-19T08:38:29;3.97;;;1.50;;
29764;SDS011;16667;-33.884;151.182;2022-08-19T08:41:01;3.13;;;1.50;;
29764;SDS011;16667;-33.884;151.182;2022-08-19T08:43:45;4.90;;;1.30;;
29764;SDS011;16667;-33.884;151.182;2022-08-19T08:46:19;2.83;;;1.45;;
29764;SDS011;16667;-33.884;151.182;2022-08-19T08:48:57;4.13;;;1.42;;
29764;SDS011;16667;-33.884;151.182;2022-08-19T08:51:35;4.28;;;1.80;;
29764;SDS011;16667;-33.884;151.182;2022-08-19T08:54:12;4.18;;;1.65;;
29764;SDS011;16667;-33.884;151.182;2022-08-19T08:56:46;5.93;;;1.42;;
29764;SDS011;16667;-33.884;151.182;2022-08-19T08:59:21;4.53;;;1.25;;
29764;SDS011;16667;-33.884;151.182;2022-08-19T09:01:55;3.70;;;1.42;;
29764;SDS011;16667;-33.884;151.182;2022-08-19T09:04:29;4.33;;;1.70;;
29764;SDS011;16667;-33.884;151.182;2022-08-19T09:07:02;6.50;;;1.83;;
29764;SDS011;16667;-33.884;151.182;2022-08-19T09:09:46;3.47;;;1.40;;
29764;SDS011;16667;-33.884;151.182;2022-08-19T09:12:21;5.05;;;1.45;;
29764;SDS011;16667;-33.884;151.182;2022-08-19T09:14:57;3.05;;;1.35;;
29764;SDS011;16667;-33.884;151.182;2022-08-19T09:17:33;3.08;;;1.33;;
29764;SDS011;16667;-33.884;151.182;2022-08-19T09:20:12;3.97;;;1.88;;
29764;SDS011;16667;-33.884;151.182;2022-08-19T09:22:46;4.43;;;2.00;;
29764;SDS011;16667;-33.884;151.182;2022-08-19T09:25:18;2.83;;;1.27;;
29764;SDS011;16667;-33.884;151.182;2022-08-19T09:27:50;7.00;;;1.67;;
29764;SDS011;16667;-33.884;151.182;2022-08-19T09:30:23;4.60;;;1.52;;
29764;SDS011;16667;-33.884;151.182;2022-08-19T09:32:55;4.32;;;1.58;;
29764;SDS011;16667;-33.884;151.182;2022-08-19T09:35:28;4.18;;;1.40;;
29764;SDS011;16667;-33.884;151.182;2022-08-19T09:37:59;2.90;;;1.50;;
29764;SDS011;16667;-33.884;151.182;2022-08-19T09:40:30;5.38;;;1.65;;
29764;SDS011;16667;-33.884;151.182;2022-08-19T09:43:01;4.43;;;1.38;;
29764;SDS011;16667;-33.884;151.182;2022-08-19T09:45:33;3.38;;;1.42;;
29764;SDS011;16667;-33.884;151.182;2022-08-19T09:48:04;3.42;;;1.00;;
29764;SDS011;16667;-33.884;151.182;2022-08-19T09:50:37;4.03;;;1.20;;
29764;SDS011;16667;-33.884;151.182;2022-08-19T09:53:07;3.40;;;1.30;;
29764;SDS011;16667;-33.884;151.182;2022-08-19T09:55:41;4.18;;;1.60;;
29764;SDS011;16667;-33.884;151.182;2022-08-19T09:58:13;4.00;;;1.20;;
29764;SDS011;16667;-33.884;151.182;2022-08-19T10:00:43;2.40;;;1.20;;
29764;SDS011;16667;-33.884;151.182;2022-08-19T10:03:14;4.43;;;1.88;;
29764;SDS011;16667;-33.884;151.182;2022-08-19T10:05:47;5.47;;;1.50;;
29764;SDS011;16667;-33.884;151.182;2022-08-19T10:08:18;6.25;;;2.40;;
29764;SDS011;16667;-33.884;151.182;2022-08-19T10:10:52;5.45;;;2.15;;
29764;SDS011;16667;-33.884;151.182;2022-08-19T10:13:24;5.95;;;1.90;;
29764;SDS011;16667;-33.884;151.182;2022-08-19T10:15:57;4.63;;;1.90;;
29764;SDS011;16667;-33.884;151.182;2022-08-19T10:18:34;5.13;;;1.75;;
29764;SDS011;16667;-33.884;151.182;2022-08-19T10:21:11;4.88;;;1.90;;
29764;SDS011;16667;-33.884;151.182;2022-08-19T10:23:44;5.45;;;2.05;;
29764;SDS011;16667;-33.884;151.182;2022-08-19T10:26:16;5.73;;;2.10;;
29764;SDS011;16667;-33.884;151.182;2022-08-19T10:28:48;5.32;;;2.45;;
29764;SDS011;16667;-33.884;151.182;2022-08-19T10:31:19;5.68;;;1.70;;
29764;SDS011;16667;-33.884;151.182;2022-08-19T10:33:51;4.55;;;2.30;;
29764;SDS011;16667;-33.884;151.182;2022-08-19T10:36:28;4.63;;;1.97;;
29764;SDS011;16667;-33.884;151.182;2022-08-19T10:39:03;4.07;;;2.30;;
29764;SDS011;16667;-33.884;151.182;2022-08-19T10:41:36;6.37;;;2.03;;
29764;SDS011;16667;-33.884;151.182;2022-08-19T10:44:10;4.68;;;2.20;;
29764;SDS011;16667;-33.884;151.182;2022-08-19T10:46:43;6.45;;;2.35;;
29764;SDS011;16667;-33.884;151.182;2022-08-19T10:49:15;5.15;;;3.00;;
29764;SDS011;16667;-33.884;151.182;2022-08-19T10:51:48;6.57;;;3.42;;
29764;SDS011;16667;-33.884;151.182;2022-08-19T10:54:35;5.15;;;3.30;;
29764;SDS011;16667;-33.884;151.182;2022-08-19T10:57:21;6.65;;;3.63;;
29764;SDS011;16667;-33.884;151.182;2022-08-19T10:59:55;6.28;;;3.85;;
29764;SDS011;16667;-33.884;151.182;2022-08-19T11:02:26;6.53;;;3.60;;
29764;SDS011;16667;-33.884;151.182;2022-08-19T11:04:58;6.28;;;3.50;;
29764;SDS011;16667;-33.884;151.182;2022-08-19T11:07:31;4.80;;;3.00;;
29764;SDS011;16667;-33.884;151.182;2022-08-19T11:10:02;7.50;;;3.38;;
29764;SDS011;16667;-33.884;151.182;2022-08-19T11:12:33;5.10;;;2.60;;
29764;SDS011;16667;-33.884;151.182;2022-08-19T11:15:06;6.40;;;2.60;;
29764;SDS011;16667;-33.884;151.182;2022-08-19T11:17:38;6.20;;;2.58;;
29764;SDS011;16667;-33.884;151.182;2022-08-19T11:20:10;4.03;;;2.40;;
29764;SDS011;16667;-33.884;151.182;2022-08-19T11:22:44;3.83;;;2.22;;
29764;SDS011;16667;-33.884;151.182;2022-08-19T11:25:14;6.15;;;2.55;;
29764;SDS011;16667;-33.884;151.182;2022-08-19T11:27:45;4.13;;;2.17;;
29764;SDS011;16667;-33.884;151.182;2022-08-19T11:30:18;4.50;;;2.10;;
29764;SDS011;16667;-33.884;151.182;2022-08-19T11:32:49;4.70;;;2.08;;
29764;SDS011;16667;-33.884;151.182;2022-08-19T11:35:23;4.00;;;1.83;;
29764;SDS011;16667;-33.884;151.182;2022-08-19T11:37:56;5.07;;;1.95;;
29764;SDS011;16667;-33.884;151.182;2022-08-19T11:40:27;3.77;;;1.80;;
29764;SDS011;16667;-33.884;151.182;2022-08-19T11:42:58;3.35;;;1.88;;
29764;SDS011;16667;-33.884;151.182;2022-08-19T11:45:29;2.90;;;1.83;;
29764;SDS011;16667;-33.884;151.182;2022-08-19T11:48:00;4.93;;;1.70;;
29764;SDS011;16667;-33.884;151.182;2022-08-19T11:50:31;2.40;;;1.50;;
29764;SDS011;16667;-33.884;151.182;2022-08-19T11:53:04;3.45;;;1.67;;
29764;SDS011;16667;-33.884;151.182;2022-08-19T11:55:36;3.17;;;1.80;;
29764;SDS011;16667;-33.884;151.182;2022-08-19T11:58:09;2.93;;;1.90;;
29764;SDS011;16667;-33.884;151.182;2022-08-19T12:00:40;3.60;;;1.87;;
29764;SDS011;16667;-33.884;151.182;2022-08-19T12:03:11;3.20;;;1.77;;
29764;SDS011;16667;-33.884;151.182;2022-08-19T12:05:42;4.05;;;1.73;;
29764;SDS011;16667;-33.884;151.182;2022-08-19T12:08:16;4.53;;;1.60;;
29764;SDS011;16667;-33.884;151.182;2022-08-19T12:10:48;4.68;;;2.05;;
29764;SDS011;16667;-33.884;151.182;2022-08-19T12:13:19;4.22;;;2.35;;
29764;SDS011;16667;-33.884;151.182;2022-08-19T12:15:50;4.55;;;2.67;;
29764;SDS011;16667;-33.884;151.182;2022-08-19T12:18:21;4.43;;;2.70;;
29764;SDS011;16667;-33.884;151.182;2022-08-19T12:20:53;5.07;;;2.58;;
29764;SDS011;16667;-33.884;151.182;2022-08-19T12:23:26;4.80;;;2.73;;
29764;SDS011;16667;-33.884;151.182;2022-08-19T12:25:56;6.63;;;2.63;;
29764;SDS011;16667;-33.884;151.182;2022-08-19T12:28:27;4.37;;;2.63;;
29764;SDS011;16667;-33.884;151.182;2022-08-19T12:30:59;5.47;;;2.53;;
29764;SDS011;16667;-33.884;151.182;2022-08-19T12:33:30;4.45;;;2.70;;
29764;SDS011;16667;-33.884;151.182;2022-08-19T12:36:01;5.03;;;2.53;;
29764;SDS011;16667;-33.884;151.182;2022-08-19T12:38:35;4.80;;;2.55;;
29764;SDS011;16667;-33.884;151.182;2022-08-19T12:41:06;4.07;;;2.28;;
29764;SDS011;16667;-33.884;151.182;2022-08-19T12:43:39;4.82;;;2.40;;
29764;SDS011;16667;-33.884;151.182;2022-08-19T12:46:10;5.38;;;2.50;;
29764;SDS011;16667;-33.884;151.182;2022-08-19T12:48:41;4.47;;;2.47;;
29764;SDS011;16667;-33.884;151.182;2022-08-19T12:51:13;3.92;;;2.22;;
29764;SDS011;16667;-33.884;151.182;2022-08-19T12:53:47;6.10;;;2.40;;
29764;SDS011;16667;-33.884;151.182;2022-08-19T12:56:18;4.97;;;2.08;;
29764;SDS011;16667;-33.884;151.182;2022-08-19T12:58:49;6.47;;;2.67;;
29764;SDS011;16667;-33.884;151.182;2022-08-19T13:01:20;5.00;;;2.35;;
29764;SDS011;16667;-33.884;151.182;2022-08-19T13:03:50;5.37;;;2.77;;
29764;SDS011;16667;-33.884;151.182;2022-08-19T13:06:21;6.45;;;2.65;;
29764;SDS011;16667;-33.884;151.182;2022-08-19T13:08:54;5.83;;;2.70;;
29764;SDS011;16667;-33.884;151.182;2022-08-19T13:11:25;5.53;;;3.00;;
29764;SDS011;16667;-33.884;151.182;2022-08-19T13:13:58;5.82;;;3.00;;
29764;SDS011;16667;-33.884;151.182;2022-08-19T13:16:29;4.77;;;2.43;;
29764;SDS011;16667;-33.884;151.182;2022-08-19T13:19:00;4.38;;;2.22;;
29764;SDS011;16667;-33.884;151.182;2022-08-19T13:21:33;5.05;;;2.55;;
29764;SDS011;16667;-33.884;151.182;2022-08-19T13:24:09;4.70;;;2.65;;
29764;SDS011;16667;-33.884;151.182;2022-08-19T13:26:41;6.88;;;2.50;;
29764;SDS011;16667;-33.884;151.182;2022-08-19T13:29:12;5.40;;;2.78;;
29764;SDS011;16667;-33.884;151.182;2022-08-19T13:31:58;6.30;;;2.33;;
29764;SDS011;16667;-33.884;151.182;2022-08-19T13:34:45;5.75;;;2.70;;
29764;SDS011;16667;-33.884;151.182;2022-08-19T13:37:16;4.13;;;2.17;;
29764;SDS011;16667;-33.884;151.182;2022-08-19T13:40:10;6.53;;;2.67;;
29764;SDS011;16667;-33.884;151.182;2022-08-19T13:42:44;4.78;;;2.20;;
29764;SDS011;16667;-33.884;151.182;2022-08-19T13:45:16;6.20;;;2.07;;
29764;SDS011;16667;-33.884;151.182;2022-08-19T13:47:49;4.47;;;1.83;;
29764;SDS011;16667;-33.884;151.182;2022-08-19T13:50:23;3.15;;;1.73;;
29764;SDS011;16667;-33.884;151.182;2022-08-19T13:52:55;5.00;;;1.63;;
29764;SDS011;16667;-33.884;151.182;2022-08-19T13:55:28;7.90;;;2.08;;
29764;SDS011;16667;-33.884;151.182;2022-08-19T13:57:59;5.05;;;1.80;;
29764;SDS011;16667;-33.884;151.182;2022-08-19T14:00:33;6.78;;;2.00;;
29764;SDS011;16667;-33.884;151.182;2022-08-19T14:03:06;5.20;;;1.70;;
29764;SDS011;16667;-33.884;151.182;2022-08-19T14:05:37;5.07;;;1.48;;
29764;SDS011;16667;-33.884;151.182;2022-08-19T14:08:08;10.60;;;1.85;;
29764;SDS011;16667;-33.884;151.182;2022-08-19T14:10:44;5.25;;;2.00;;
29764;SDS011;16667;-33.884;151.182;2022-08-19T14:13:16;4.53;;;1.63;;
29764;SDS011;16667;-33.884;151.182;2022-08-19T14:15:48;6.38;;;2.10;;
29764;SDS011;16667;-33.884;151.182;2022-08-19T14:18:19;6.23;;;1.57;;
29764;SDS011;16667;-33.884;151.182;2022-08-19T14:20:51;4.82;;;1.63;;
29764;SDS011;16667;-33.884;151.182;2022-08-19T14:23:22;6.00;;;2.00;;
29764;SDS011;16667;-33.884;151.182;2022-08-19T14:25:55;6.50;;;2.10;;
29764;SDS011;16667;-33.884;151.182;2022-08-19T14:28:33;5.95;;;1.90;;
29764;SDS011;16667;-33.884;151.182;2022-08-19T14:31:04;5.13;;;1.88;;
29764;SDS011;16667;-33.884;151.182;2022-08-19T14:33:34;6.60;;;1.80;;
29764;SDS011;16667;-33.884;151.182;2022-08-19T14:36:06;4.55;;;1.63;;
29764;SDS011;16667;-33.884;151.182;2022-08-19T14:38:37;6.45;;;1.80;;
29764;SDS011;16667;-33.884;151.182;2022-08-19T14:41:13;5.43;;;1.90;;